sensor_id;sensor_type;location;lat;lon;timestamp;temperature;humidity
35377;DHT22;21480;51.642;4.834;2022-11-20T00:01:26;-2.10;99.90
35377;DHT22;21480;51.642;4.834;2022-11-20T00:03:54;-2.20;99.90
35377;DHT22;21480;51.642;4.834;2022-11-20T00:06:21;-2.20;99.90
35377;DHT22;21480;51.642;4.834;2022-11-20T00:08:48;-2.20;99.90
35377;DHT22;21480;51.642;4.834;2022-11-20T00:11:19;-2.30;99.90
35377;DHT22;21480;51.642;4.834;2022-11-20T00:13:46;-2.30;99.90
35377;DHT22;21480;51.642;4.834;2022-11-20T00:16:17;-2.40;99.90
35377;DHT22;21480;51.642;4.834;2022-11-20T00:18:43;-2.40;99.90
35377;DHT22;21480;51.642;4.834;2022-11-20T00:21:24;-2.40;99.90
35377;DHT22;21480;51.642;4.834;2022-11-20T00:23:51;-2.50;99.90
35377;DHT22;21480;51.642;4.834;2022-11-20T00:26:18;-2.50;99.90
35377;DHT22;21480;51.642;4.834;2022-11-20T00:28:50;-2.70;99.90
35377;DHT22;21480;51.642;4.834;2022-11-20T00:31:16;-2.80;99.90
35377;DHT22;21480;51.642;4.834;2022-11-20T00:33:43;-2.80;99.90
35377;DHT22;21480;51.642;4.834;2022-11-20T00:36:18;-2.90;99.90
35377;DHT22;21480;51.642;4.834;2022-11-20T00:38:44;-2.80;99.90
35377;DHT22;21480;51.642;4.834;2022-11-20T00:41:15;-2.90;99.90
35377;DHT22;21480;51.642;4.834;2022-11-20T00:43:41;-2.90;99.90
35377;DHT22;21480;51.642;4.834;2022-11-20T00:46:09;-2.90;99.90
35377;DHT22;21480;51.642;4.834;2022-11-20T00:48:35;-2.90;99.90
35377;DHT22;21480;51.642;4.834;2022-11-20T00:51:01;-2.90;99.90
35377;DHT22;21480;51.642;4.834;2022-11-20T00:53:28;-3.00;99.90
35377;DHT22;21480;51.642;4.834;2022-11-20T00:56:00;-3.00;99.90
35377;DHT22;21480;51.642;4.834;2022-11-20T00:58:30;-3.00;99.90
35377;DHT22;21480;51.642;4.834;2022-11-20T01:03:34;-3.10;99.90
35377;DHT22;21480;51.642;4.834;2022-11-20T01:06:09;-3.10;99.90
35377;DHT22;21480;51.642;4.834;2022-11-20T01:08:36;-3.00;99.90
35377;DHT22;21480;51.642;4.834;2022-11-20T01:11:03;-2.90;99.90
35377;DHT22;21480;51.642;4.834;2022-11-20T01:13:30;-2.90;99.90
35377;DHT22;21480;51.642;4.834;2022-11-20T01:18:44;-2.80;99.90
35377;DHT22;21480;51.642;4.834;2022-11-20T01:21:12;-2.80;99.90
35377;DHT22;21480;51.642;4.834;2022-11-20T01:23:40;-2.90;99.90
35377;DHT22;21480;51.642;4.834;2022-11-20T01:26:09;-2.90;99.90
35377;DHT22;21480;51.642;4.834;2022-11-20T01:28:35;-3.00;99.90
35377;DHT22;21480;51.642;4.834;2022-11-20T01:31:01;-3.00;99.90
35377;DHT22;21480;51.642;4.834;2022-11-20T01:33:35;-2.80;99.90
35377;DHT22;21480;51.642;4.834;2022-11-20T01:36:05;-2.80;99.90
35377;DHT22;21480;51.642;4.834;2022-11-20T01:38:31;-2.80;99.90
35377;DHT22;21480;51.642;4.834;2022-11-20T01:40:57;-2.90;99.90
35377;DHT22;21480;51.642;4.834;2022-11-20T01:43:23;-2.90;99.90
35377;DHT22;21480;51.642;4.834;2022-11-20T01:45:59;-2.80;99.90
35377;DHT22;21480;51.642;4.834;2022-11-20T01:48:30;-2.70;99.90
35377;DHT22;21480;51.642;4.834;2022-11-20T01:50:57;-2.60;99.90
35377;DHT22;21480;51.642;4.834;2022-11-20T01:53:26;-2.60;99.90
35377;DHT22;21480;51.642;4.834;2022-11-20T01:55:55;-2.50;99.90
35377;DHT22;21480;51.642;4.834;2022-11-20T01:58:27;-2.50;99.90
35377;DHT22;21480;51.642;4.834;2022-11-20T02:00:53;-2.50;99.90
35377;DHT22;21480;51.642;4.834;2022-11-20T02:03:20;-2.30;99.90
35377;DHT22;21480;51.642;4.834;2022-11-20T02:08:18;-2.10;99.90
35377;DHT22;21480;51.642;4.834;2022-11-20T02:10:44;-2.10;99.90
35377;DHT22;21480;51.642;4.834;2022-11-20T02:13:10;-2.00;99.90
35377;DHT22;21480;51.642;4.834;2022-11-20T02:15:54;-1.90;99.90
35377;DHT22;21480;51.642;4.834;2022-11-20T02:18:21;-1.80;99.90
35377;DHT22;21480;51.642;4.834;2022-11-20T02:20:49;-1.80;99.90
35377;DHT22;21480;51.642;4.834;2022-11-20T02:26:17;-1.70;99.90
35377;DHT22;21480;51.642;4.834;2022-11-20T02:28:43;-1.70;99.90
35377;DHT22;21480;51.642;4.834;2022-11-20T02:31:09;-1.60;99.90
35377;DHT22;21480;51.642;4.834;2022-11-20T02:33:35;-1.60;99.90
35377;DHT22;21480;51.642;4.834;2022-11-20T02:36:04;-1.50;99.90
35377;DHT22;21480;51.642;4.834;2022-11-20T02:38:30;-1.50;99.90
35377;DHT22;21480;51.642;4.834;2022-11-20T02:40:56;-1.50;99.90
35377;DHT22;21480;51.642;4.834;2022-11-20T02:43:22;-1.50;99.90
35377;DHT22;21480;51.642;4.834;2022-11-20T02:45:48;-1.50;99.90
35377;DHT22;21480;51.642;4.834;2022-11-20T02:48:13;-1.50;99.90
35377;DHT22;21480;51.642;4.834;2022-11-20T02:50:39;-1.40;99.90
35377;DHT22;21480;51.642;4.834;2022-11-20T02:53:06;-1.40;99.90
35377;DHT22;21480;51.642;4.834;2022-11-20T02:55:32;-1.40;99.90
35377;DHT22;21480;51.642;4.834;2022-11-20T02:57:57;-1.40;99.90
35377;DHT22;21480;51.642;4.834;2022-11-20T03:00:23;-1.40;99.90
35377;DHT22;21480;51.642;4.834;2022-11-20T03:02:49;-1.40;99.90
35377;DHT22;21480;51.642;4.834;2022-11-20T03:05:15;-1.40;99.90
35377;DHT22;21480;51.642;4.834;2022-11-20T03:07:40;-1.50;99.90
35377;DHT22;21480;51.642;4.834;2022-11-20T03:10:06;-1.50;99.90
35377;DHT22;21480;51.642;4.834;2022-11-20T03:12:32;-1.50;99.90
35377;DHT22;21480;51.642;4.834;2022-11-20T03:14:58;-1.50;99.90
35377;DHT22;21480;51.642;4.834;2022-11-20T03:17:24;-1.50;99.90
35377;DHT22;21480;51.642;4.834;2022-11-20T03:19:49;-1.50;99.90
35377;DHT22;21480;51.642;4.834;2022-11-20T03:22:15;-1.50;99.90
35377;DHT22;21480;51.642;4.834;2022-11-20T03:24:41;-1.50;99.90
35377;DHT22;21480;51.642;4.834;2022-11-20T03:27:06;-1.50;99.90
35377;DHT22;21480;51.642;4.834;2022-11-20T03:29:32;-1.60;99.90
35377;DHT22;21480;51.642;4.834;2022-11-20T03:31:58;-1.60;99.90
35377;DHT22;21480;51.642;4.834;2022-11-20T03:34:23;-1.60;99.90
35377;DHT22;21480;51.642;4.834;2022-11-20T03:36:49;-1.60;99.90
35377;DHT22;21480;51.642;4.834;2022-11-20T03:39:15;-1.70;99.90
35377;DHT22;21480;51.642;4.834;2022-11-20T03:41:41;-1.70;99.90
35377;DHT22;21480;51.642;4.834;2022-11-20T03:44:09;-1.70;99.90
35377;DHT22;21480;51.642;4.834;2022-11-20T03:46:35;-1.70;99.90
35377;DHT22;21480;51.642;4.834;2022-11-20T03:49:01;-1.70;99.90
35377;DHT22;21480;51.642;4.834;2022-11-20T03:51:29;-1.70;99.90
35377;DHT22;21480;51.642;4.834;2022-11-20T03:53:57;-1.70;99.90
35377;DHT22;21480;51.642;4.834;2022-11-20T03:56:26;-1.80;99.90
35377;DHT22;21480;51.642;4.834;2022-11-20T03:58:52;-1.80;99.90
35377;DHT22;21480;51.642;4.834;2022-11-20T04:01:22;-1.80;99.90
35377;DHT22;21480;51.642;4.834;2022-11-20T04:03:49;-1.80;99.90
35377;DHT22;21480;51.642;4.834;2022-11-20T04:06:17;-1.90;99.90
35377;DHT22;21480;51.642;4.834;2022-11-20T04:08:44;-1.90;99.90
35377;DHT22;21480;51.642;4.834;2022-11-20T04:11:14;-2.00;99.90
35377;DHT22;21480;51.642;4.834;2022-11-20T04:13:40;-2.00;99.90
35377;DHT22;21480;51.642;4.834;2022-11-20T04:16:08;-2.10;99.90
35377;DHT22;21480;51.642;4.834;2022-11-20T04:18:34;-2.00;99.90
35377;DHT22;21480;51.642;4.834;2022-11-20T04:21:00;-1.90;99.90
35377;DHT22;21480;51.642;4.834;2022-11-20T04:23:27;-1.90;99.90
35377;DHT22;21480;51.642;4.834;2022-11-20T04:25:53;-1.90;99.90
35377;DHT22;21480;51.642;4.834;2022-11-20T04:28:19;-1.90;99.90
35377;DHT22;21480;51.642;4.834;2022-11-20T04:30:44;-1.90;99.90
35377;DHT22;21480;51.642;4.834;2022-11-20T04:33:10;-1.80;99.90
35377;DHT22;21480;51.642;4.834;2022-11-20T04:35:36;-1.80;99.90
35377;DHT22;21480;51.642;4.834;2022-11-20T04:38:03;-1.90;99.90
35377;DHT22;21480;51.642;4.834;2022-11-20T04:40:29;-2.00;99.90
35377;DHT22;21480;51.642;4.834;2022-11-20T04:42:55;-2.00;99.90
35377;DHT22;21480;51.642;4.834;2022-11-20T04:45:22;-2.10;99.90
35377;DHT22;21480;51.642;4.834;2022-11-20T04:47:48;-2.10;99.90
35377;DHT22;21480;51.642;4.834;2022-11-20T04:50:14;-2.10;99.90
35377;DHT22;21480;51.642;4.834;2022-11-20T04:52:40;-2.10;99.90
35377;DHT22;21480;51.642;4.834;2022-11-20T04:55:06;-2.10;99.90
35377;DHT22;21480;51.642;4.834;2022-11-20T04:57:32;-2.20;99.90
35377;DHT22;21480;51.642;4.834;2022-11-20T04:59:57;-2.20;99.90
35377;DHT22;21480;51.642;4.834;2022-11-20T05:02:23;-2.20;99.90
35377;DHT22;21480;51.642;4.834;2022-11-20T05:04:49;-2.20;99.90
35377;DHT22;21480;51.642;4.834;2022-11-20T05:07:18;-2.30;99.90
35377;DHT22;21480;51.642;4.834;2022-11-20T05:09:44;-2.40;99.90
35377;DHT22;21480;51.642;4.834;2022-11-20T05:12:10;-2.50;99.90
35377;DHT22;21480;51.642;4.834;2022-11-20T05:14:35;-2.50;99.90
35377;DHT22;21480;51.642;4.834;2022-11-20T05:17:01;-2.50;99.90
35377;DHT22;21480;51.642;4.834;2022-11-20T05:19:27;-2.60;99.90
35377;DHT22;21480;51.642;4.834;2022-11-20T05:21:52;-2.60;99.90
35377;DHT22;21480;51.642;4.834;2022-11-20T05:24:18;-2.60;99.90
35377;DHT22;21480;51.642;4.834;2022-11-20T05:26:44;-2.60;99.90
35377;DHT22;21480;51.642;4.834;2022-11-20T05:29:13;-2.70;99.90
35377;DHT22;21480;51.642;4.834;2022-11-20T05:31:40;-2.70;99.90
35377;DHT22;21480;51.642;4.834;2022-11-20T05:34:06;-2.70;99.90
35377;DHT22;21480;51.642;4.834;2022-11-20T05:36:32;-2.80;99.90
35377;DHT22;21480;51.642;4.834;2022-11-20T05:38:58;-2.80;99.90
35377;DHT22;21480;51.642;4.834;2022-11-20T05:41:24;-2.80;99.90
35377;DHT22;21480;51.642;4.834;2022-11-20T05:43:50;-2.80;99.90
35377;DHT22;21480;51.642;4.834;2022-11-20T05:46:19;-3.00;99.90
35377;DHT22;21480;51.642;4.834;2022-11-20T05:48:46;-3.10;99.90
35377;DHT22;21480;51.642;4.834;2022-11-20T05:51:14;-3.10;99.90
35377;DHT22;21480;51.642;4.834;2022-11-20T05:53:40;-3.10;99.90
35377;DHT22;21480;51.642;4.834;2022-11-20T05:56:09;-3.20;99.90
35377;DHT22;21480;51.642;4.834;2022-11-20T05:58:38;-3.20;99.90
35377;DHT22;21480;51.642;4.834;2022-11-20T06:03:41;-3.20;99.90
35377;DHT22;21480;51.642;4.834;2022-11-20T06:06:13;-3.20;99.90
35377;DHT22;21480;51.642;4.834;2022-11-20T06:08:39;-3.20;99.90
35377;DHT22;21480;51.642;4.834;2022-11-20T06:11:07;-3.20;99.90
35377;DHT22;21480;51.642;4.834;2022-11-20T06:13:33;-3.20;99.90
35377;DHT22;21480;51.642;4.834;2022-11-20T06:15:59;-3.10;99.90
35377;DHT22;21480;51.642;4.834;2022-11-20T06:18:26;-3.10;99.90
35377;DHT22;21480;51.642;4.834;2022-11-20T06:21:06;-3.10;99.90
35377;DHT22;21480;51.642;4.834;2022-11-20T06:23:34;-3.10;99.90
35377;DHT22;21480;51.642;4.834;2022-11-20T06:26:05;-3.10;99.90
35377;DHT22;21480;51.642;4.834;2022-11-20T06:28:31;-3.10;99.90
35377;DHT22;21480;51.642;4.834;2022-11-20T06:30:57;-3.00;99.90
35377;DHT22;21480;51.642;4.834;2022-11-20T06:33:23;-3.00;99.90
35377;DHT22;21480;51.642;4.834;2022-11-20T06:35:49;-2.90;99.90
35377;DHT22;21480;51.642;4.834;2022-11-20T06:38:15;-2.90;99.90
35377;DHT22;21480;51.642;4.834;2022-11-20T06:40:41;-2.80;99.90
35377;DHT22;21480;51.642;4.834;2022-11-20T06:43:09;-2.90;99.90
35377;DHT22;21480;51.642;4.834;2022-11-20T06:45:35;-2.80;99.90
35377;DHT22;21480;51.642;4.834;2022-11-20T06:48:00;-2.80;99.90
35377;DHT22;21480;51.642;4.834;2022-11-20T06:50:26;-2.80;99.90
35377;DHT22;21480;51.642;4.834;2022-11-20T06:52:52;-2.80;99.90
35377;DHT22;21480;51.642;4.834;2022-11-20T06:55:17;-2.80;99.90
35377;DHT22;21480;51.642;4.834;2022-11-20T06:57:43;-2.80;99.90
35377;DHT22;21480;51.642;4.834;2022-11-20T07:00:09;-2.80;99.90
35377;DHT22;21480;51.642;4.834;2022-11-20T07:02:35;-2.90;99.90
35377;DHT22;21480;51.642;4.834;2022-11-20T07:05:00;-2.80;99.90
35377;DHT22;21480;51.642;4.834;2022-11-20T07:07:26;-2.80;99.90
35377;DHT22;21480;51.642;4.834;2022-11-20T07:09:52;-2.70;99.90
35377;DHT22;21480;51.642;4.834;2022-11-20T07:12:18;-2.70;99.90
35377;DHT22;21480;51.642;4.834;2022-11-20T07:14:43;-2.70;99.90
35377;DHT22;21480;51.642;4.834;2022-11-20T07:17:09;-2.60;99.90
35377;DHT22;21480;51.642;4.834;2022-11-20T07:19:35;-2.50;99.90
35377;DHT22;21480;51.642;4.834;2022-11-20T07:22:00;-2.50;99.90
35377;DHT22;21480;51.642;4.834;2022-11-20T07:24:26;-2.40;99.90
35377;DHT22;21480;51.642;4.834;2022-11-20T07:26:51;-2.40;99.90
35377;DHT22;21480;51.642;4.834;2022-11-20T07:29:17;-2.30;99.90
35377;DHT22;21480;51.642;4.834;2022-11-20T07:31:43;-2.20;99.90
35377;DHT22;21480;51.642;4.834;2022-11-20T07:34:09;-2.10;99.90
35377;DHT22;21480;51.642;4.834;2022-11-20T07:36:35;-2.10;99.90
35377;DHT22;21480;51.642;4.834;2022-11-20T07:39:01;-2.00;99.90
35377;DHT22;21480;51.642;4.834;2022-11-20T07:41:26;-1.80;99.90
35377;DHT22;21480;51.642;4.834;2022-11-20T07:43:53;-1.70;99.90
35377;DHT22;21480;51.642;4.834;2022-11-20T07:46:18;-1.60;99.90
35377;DHT22;21480;51.642;4.834;2022-11-20T07:48:44;-1.40;99.90
35377;DHT22;21480;51.642;4.834;2022-11-20T07:51:10;-1.20;99.90
35377;DHT22;21480;51.642;4.834;2022-11-20T07:53:35;-1.10;99.90
35377;DHT22;21480;51.642;4.834;2022-11-20T07:56:02;-1.10;99.90
35377;DHT22;21480;51.642;4.834;2022-11-20T07:58:34;-1.00;99.90
35377;DHT22;21480;51.642;4.834;2022-11-20T08:01:05;-0.90;99.90
35377;DHT22;21480;51.642;4.834;2022-11-20T08:03:30;-0.90;99.90
35377;DHT22;21480;51.642;4.834;2022-11-20T08:05:59;-0.70;99.90
35377;DHT22;21480;51.642;4.834;2022-11-20T08:08:26;-0.70;99.90
35377;DHT22;21480;51.642;4.834;2022-11-20T08:10:51;-0.60;99.90
35377;DHT22;21480;51.642;4.834;2022-11-20T08:13:17;-0.60;99.90
35377;DHT22;21480;51.642;4.834;2022-11-20T08:16:01;-0.60;99.90
35377;DHT22;21480;51.642;4.834;2022-11-20T08:18:27;-0.50;99.90
35377;DHT22;21480;51.642;4.834;2022-11-20T08:20:53;-0.40;99.90
35377;DHT22;21480;51.642;4.834;2022-11-20T08:23:18;-0.40;99.90
35377;DHT22;21480;51.642;4.834;2022-11-20T08:25:49;-0.30;99.90
35377;DHT22;21480;51.642;4.834;2022-11-20T08:28:14;-0.20;99.90
35377;DHT22;21480;51.642;4.834;2022-11-20T08:30:40;-0.20;99.90
35377;DHT22;21480;51.642;4.834;2022-11-20T08:33:08;-0.10;99.90
35377;DHT22;21480;51.642;4.834;2022-11-20T08:35:37;-0.10;99.90
35377;DHT22;21480;51.642;4.834;2022-11-20T08:38:06;-0.10;99.90
35377;DHT22;21480;51.642;4.834;2022-11-20T08:40:32;0.00;99.90
35377;DHT22;21480;51.642;4.834;2022-11-20T08:42:58;0.00;99.90
35377;DHT22;21480;51.642;4.834;2022-11-20T08:45:24;0.20;99.90
35377;DHT22;21480;51.642;4.834;2022-11-20T08:47:50;0.20;99.90
35377;DHT22;21480;51.642;4.834;2022-11-20T08:50:16;0.30;99.90
35377;DHT22;21480;51.642;4.834;2022-11-20T08:52:42;0.40;99.90
35377;DHT22;21480;51.642;4.834;2022-11-20T08:55:09;0.50;99.90
35377;DHT22;21480;51.642;4.834;2022-11-20T08:57:36;0.50;99.90
35377;DHT22;21480;51.642;4.834;2022-11-20T09:00:04;0.60;99.90
35377;DHT22;21480;51.642;4.834;2022-11-20T09:02:30;0.60;99.90
35377;DHT22;21480;51.642;4.834;2022-11-20T09:04:56;0.70;99.90
35377;DHT22;21480;51.642;4.834;2022-11-20T09:07:22;0.80;99.90
35377;DHT22;21480;51.642;4.834;2022-11-20T09:09:47;0.80;99.90
35377;DHT22;21480;51.642;4.834;2022-11-20T09:12:13;0.80;99.90
35377;DHT22;21480;51.642;4.834;2022-11-20T09:14:42;0.90;99.90
35377;DHT22;21480;51.642;4.834;2022-11-20T09:17:10;0.90;99.90
35377;DHT22;21480;51.642;4.834;2022-11-20T09:19:35;1.00;99.90
35377;DHT22;21480;51.642;4.834;2022-11-20T09:22:04;1.10;99.90
35377;DHT22;21480;51.642;4.834;2022-11-20T09:24:30;1.10;99.90
35377;DHT22;21480;51.642;4.834;2022-11-20T09:26:55;1.20;99.90
35377;DHT22;21480;51.642;4.834;2022-11-20T09:29:21;1.20;99.90
35377;DHT22;21480;51.642;4.834;2022-11-20T09:31:47;1.30;99.90
35377;DHT22;21480;51.642;4.834;2022-11-20T09:34:12;1.30;99.90
35377;DHT22;21480;51.642;4.834;2022-11-20T09:36:38;1.40;99.90
35377;DHT22;21480;51.642;4.834;2022-11-20T09:39:04;1.40;99.90
35377;DHT22;21480;51.642;4.834;2022-11-20T09:44:55;1.50;99.90
35377;DHT22;21480;51.642;4.834;2022-11-20T09:47:53;1.60;99.90
35377;DHT22;21480;51.642;4.834;2022-11-20T09:50:43;1.70;99.90
35377;DHT22;21480;51.642;4.834;2022-11-20T09:53:20;1.90;99.90
35377;DHT22;21480;51.642;4.834;2022-11-20T09:55:48;2.00;99.90
35377;DHT22;21480;51.642;4.834;2022-11-20T09:58:54;2.10;99.90
35377;DHT22;21480;51.642;4.834;2022-11-20T10:01:23;2.20;99.90
35377;DHT22;21480;51.642;4.834;2022-11-20T10:03:58;2.20;99.90
35377;DHT22;21480;51.642;4.834;2022-11-20T10:06:34;2.30;99.90
35377;DHT22;21480;51.642;4.834;2022-11-20T10:17:43;2.50;99.90
35377;DHT22;21480;51.642;4.834;2022-11-20T10:31:59;2.70;99.90
35377;DHT22;21480;51.642;4.834;2022-11-20T10:37:17;2.90;99.90
35377;DHT22;21480;51.642;4.834;2022-11-20T10:48:15;3.30;99.90
35377;DHT22;21480;51.642;4.834;2022-11-20T10:56:24;3.50;99.90
35377;DHT22;21480;51.642;4.834;2022-11-20T10:59:03;3.60;99.90
35377;DHT22;21480;51.642;4.834;2022-11-20T11:01:30;3.70;99.90
35377;DHT22;21480;51.642;4.834;2022-11-20T11:03:56;3.80;99.90
35377;DHT22;21480;51.642;4.834;2022-11-20T11:06:39;3.80;99.90
35377;DHT22;21480;51.642;4.834;2022-11-20T11:09:13;3.80;99.90
35377;DHT22;21480;51.642;4.834;2022-11-20T11:11:40;3.80;99.90
35377;DHT22;21480;51.642;4.834;2022-11-20T11:14:12;3.80;99.90
35377;DHT22;21480;51.642;4.834;2022-11-20T11:16:57;3.90;99.90
35377;DHT22;21480;51.642;4.834;2022-11-20T11:19:23;3.80;99.90
35377;DHT22;21480;51.642;4.834;2022-11-20T11:21:55;3.80;99.90
35377;DHT22;21480;51.642;4.834;2022-11-20T11:24:27;3.80;99.90
35377;DHT22;21480;51.642;4.834;2022-11-20T11:27:10;3.70;99.90
35377;DHT22;21480;51.642;4.834;2022-11-20T11:29:36;3.70;99.90
35377;DHT22;21480;51.642;4.834;2022-11-20T11:32:08;3.80;99.90
35377;DHT22;21480;51.642;4.834;2022-11-20T11:34:34;3.70;99.90
35377;DHT22;21480;51.642;4.834;2022-11-20T11:37:00;3.80;99.90
35377;DHT22;21480;51.642;4.834;2022-11-20T11:39:30;3.80;99.90
35377;DHT22;21480;51.642;4.834;2022-11-20T11:41:57;3.90;99.90
35377;DHT22;21480;51.642;4.834;2022-11-20T11:44:34;4.00;99.90
35377;DHT22;21480;51.642;4.834;2022-11-20T11:47:25;4.20;99.90
35377;DHT22;21480;51.642;4.834;2022-11-20T11:55:58;4.40;99.90
35377;DHT22;21480;51.642;4.834;2022-11-20T11:58:47;4.40;99.90
35377;DHT22;21480;51.642;4.834;2022-11-20T12:01:44;4.40;99.90
35377;DHT22;21480;51.642;4.834;2022-11-20T12:06:45;4.50;99.90
35377;DHT22;21480;51.642;4.834;2022-11-20T12:09:12;4.60;99.90
35377;DHT22;21480;51.642;4.834;2022-11-20T12:11:46;4.60;99.90
35377;DHT22;21480;51.642;4.834;2022-11-20T12:14:20;4.70;99.90
35377;DHT22;21480;51.642;4.834;2022-11-20T12:16:50;4.80;99.90
35377;DHT22;21480;51.642;4.834;2022-11-20T12:19:18;4.90;99.90
35377;DHT22;21480;51.642;4.834;2022-11-20T12:28:21;5.00;99.90
35377;DHT22;21480;51.642;4.834;2022-11-20T12:34:08;5.20;99.90
35377;DHT22;21480;51.642;4.834;2022-11-20T12:39:43;5.50;99.90
35377;DHT22;21480;51.642;4.834;2022-11-20T12:45:26;5.50;99.90
35377;DHT22;21480;51.642;4.834;2022-11-20T13:07:41;5.30;99.90
35377;DHT22;21480;51.642;4.834;2022-11-20T13:10:18;5.30;99.90
35377;DHT22;21480;51.642;4.834;2022-11-20T13:13:10;5.30;99.90
35377;DHT22;21480;51.642;4.834;2022-11-20T13:18:10;5.40;99.90
35377;DHT22;21480;51.642;4.834;2022-11-20T13:20:44;5.40;99.90
35377;DHT22;21480;51.642;4.834;2022-11-20T13:23:11;5.40;99.90
35377;DHT22;21480;51.642;4.834;2022-11-20T13:25:39;5.50;99.90
35377;DHT22;21480;51.642;4.834;2022-11-20T13:30:48;5.50;99.90
35377;DHT22;21480;51.642;4.834;2022-11-20T13:36:23;5.40;99.90
35377;DHT22;21480;51.642;4.834;2022-11-20T13:38:51;5.30;99.90
35377;DHT22;21480;51.642;4.834;2022-11-20T13:41:30;5.30;99.90
35377;DHT22;21480;51.642;4.834;2022-11-20T13:44:42;5.30;99.90
35377;DHT22;21480;51.642;4.834;2022-11-20T13:47:21;5.30;99.90
35377;DHT22;21480;51.642;4.834;2022-11-20T13:49:48;5.20;99.90
35377;DHT22;21480;51.642;4.834;2022-11-20T13:55:18;5.10;99.90
35377;DHT22;21480;51.642;4.834;2022-11-20T14:00:17;5.10;99.90
35377;DHT22;21480;51.642;4.834;2022-11-20T14:02:47;5.10;99.90
35377;DHT22;21480;51.642;4.834;2022-11-20T14:05:23;5.10;99.90
35377;DHT22;21480;51.642;4.834;2022-11-20T14:07:50;5.00;99.90
35377;DHT22;21480;51.642;4.834;2022-11-20T14:10:35;5.00;99.90
35377;DHT22;21480;51.642;4.834;2022-11-20T14:13:20;5.00;99.90
35377;DHT22;21480;51.642;4.834;2022-11-20T14:15:46;5.00;99.90
35377;DHT22;21480;51.642;4.834;2022-11-20T14:18:14;4.90;99.90
35377;DHT22;21480;51.642;4.834;2022-11-20T14:20:41;4.90;99.90
35377;DHT22;21480;51.642;4.834;2022-11-20T14:23:10;4.90;99.90
35377;DHT22;21480;51.642;4.834;2022-11-20T14:25:36;4.90;99.90
35377;DHT22;21480;51.642;4.834;2022-11-20T14:28:03;4.90;99.90
35377;DHT22;21480;51.642;4.834;2022-11-20T14:30:59;4.90;99.90
35377;DHT22;21480;51.642;4.834;2022-11-20T14:33:26;4.90;99.90
35377;DHT22;21480;51.642;4.834;2022-11-20T14:35:54;4.90;99.90
35377;DHT22;21480;51.642;4.834;2022-11-20T14:38:31;5.00;99.90
35377;DHT22;21480;51.642;4.834;2022-11-20T14:41:29;5.00;99.90
35377;DHT22;21480;51.642;4.834;2022-11-20T14:43:57;5.00;99.90
35377;DHT22;21480;51.642;4.834;2022-11-20T14:46:24;5.10;99.90
35377;DHT22;21480;51.642;4.834;2022-11-20T14:48:53;5.10;99.90
35377;DHT22;21480;51.642;4.834;2022-11-20T14:51:33;5.10;99.90
35377;DHT22;21480;51.642;4.834;2022-11-20T14:54:20;5.20;99.90
35377;DHT22;21480;51.642;4.834;2022-11-20T14:57:00;5.20;99.90
35377;DHT22;21480;51.642;4.834;2022-11-20T14:59:32;5.30;99.90
35377;DHT22;21480;51.642;4.834;2022-11-20T15:02:11;5.30;99.90
35377;DHT22;21480;51.642;4.834;2022-11-20T15:04:48;5.30;99.90
35377;DHT22;21480;51.642;4.834;2022-11-20T15:07:30;5.40;99.90
35377;DHT22;21480;51.642;4.834;2022-11-20T15:10:10;5.40;99.90
35377;DHT22;21480;51.642;4.834;2022-11-20T15:12:59;5.40;99.90
35377;DHT22;21480;51.642;4.834;2022-11-20T15:15:45;5.50;99.90
35377;DHT22;21480;51.642;4.834;2022-11-20T15:18:20;5.50;99.90
35377;DHT22;21480;51.642;4.834;2022-11-20T15:20:46;5.60;99.90
35377;DHT22;21480;51.642;4.834;2022-11-20T15:23:14;5.60;99.90
35377;DHT22;21480;51.642;4.834;2022-11-20T15:25:41;5.60;99.90
35377;DHT22;21480;51.642;4.834;2022-11-20T15:30:58;5.70;99.90
35377;DHT22;21480;51.642;4.834;2022-11-20T15:33:24;5.70;99.90
35377;DHT22;21480;51.642;4.834;2022-11-20T15:35:50;5.80;99.90
35377;DHT22;21480;51.642;4.834;2022-11-20T15:38:15;5.80;99.90
35377;DHT22;21480;51.642;4.834;2022-11-20T15:40:41;5.90;99.90
35377;DHT22;21480;51.642;4.834;2022-11-20T15:43:07;5.90;99.90
35377;DHT22;21480;51.642;4.834;2022-11-20T15:45:39;5.90;99.90
35377;DHT22;21480;51.642;4.834;2022-11-20T15:48:14;5.90;99.90
35377;DHT22;21480;51.642;4.834;2022-11-20T15:53:20;6.00;99.90
35377;DHT22;21480;51.642;4.834;2022-11-20T15:55:45;6.00;99.90
35377;DHT22;21480;51.642;4.834;2022-11-20T15:58:11;6.00;99.90
35377;DHT22;21480;51.642;4.834;2022-11-20T16:00:37;6.00;99.90
35377;DHT22;21480;51.642;4.834;2022-11-20T16:03:03;6.00;99.90
35377;DHT22;21480;51.642;4.834;2022-11-20T16:05:29;6.10;99.90
35377;DHT22;21480;51.642;4.834;2022-11-20T16:07:55;6.10;99.90
35377;DHT22;21480;51.642;4.834;2022-11-20T16:10:21;6.10;99.90
35377;DHT22;21480;51.642;4.834;2022-11-20T16:12:47;6.20;99.90
35377;DHT22;21480;51.642;4.834;2022-11-20T16:15:32;6.20;99.90
35377;DHT22;21480;51.642;4.834;2022-11-20T16:18:18;6.20;99.90
35377;DHT22;21480;51.642;4.834;2022-11-20T16:20:46;6.30;99.90
35377;DHT22;21480;51.642;4.834;2022-11-20T16:23:12;6.30;99.90
35377;DHT22;21480;51.642;4.834;2022-11-20T16:25:38;6.40;99.90
35377;DHT22;21480;51.642;4.834;2022-11-20T16:28:04;6.40;99.90
35377;DHT22;21480;51.642;4.834;2022-11-20T16:30:31;6.50;99.90
35377;DHT22;21480;51.642;4.834;2022-11-20T16:32:58;6.50;99.90
35377;DHT22;21480;51.642;4.834;2022-11-20T16:35:26;6.60;99.90
35377;DHT22;21480;51.642;4.834;2022-11-20T16:37:54;6.60;99.90
35377;DHT22;21480;51.642;4.834;2022-11-20T16:40:19;6.70;99.90
35377;DHT22;21480;51.642;4.834;2022-11-20T16:42:45;6.70;99.90
35377;DHT22;21480;51.642;4.834;2022-11-20T16:45:11;6.80;99.90
35377;DHT22;21480;51.642;4.834;2022-11-20T16:47:36;6.80;99.90
35377;DHT22;21480;51.642;4.834;2022-11-20T16:50:04;7.00;99.90
35377;DHT22;21480;51.642;4.834;2022-11-20T16:52:30;7.00;99.90
35377;DHT22;21480;51.642;4.834;2022-11-20T16:54:57;7.20;99.90
35377;DHT22;21480;51.642;4.834;2022-11-20T16:57:22;7.40;99.90
35377;DHT22;21480;51.642;4.834;2022-11-20T16:59:48;7.50;99.90
35377;DHT22;21480;51.642;4.834;2022-11-20T17:02:15;7.60;99.90
35377;DHT22;21480;51.642;4.834;2022-11-20T17:04:41;7.60;99.90
35377;DHT22;21480;51.642;4.834;2022-11-20T17:07:06;7.70;99.90
35377;DHT22;21480;51.642;4.834;2022-11-20T17:09:33;7.80;99.90
35377;DHT22;21480;51.642;4.834;2022-11-20T17:11:59;7.80;99.90
35377;DHT22;21480;51.642;4.834;2022-11-20T17:14:24;7.80;99.90
35377;DHT22;21480;51.642;4.834;2022-11-20T17:16:50;7.80;99.90
35377;DHT22;21480;51.642;4.834;2022-11-20T17:19:16;7.80;99.90
35377;DHT22;21480;51.642;4.834;2022-11-20T17:21:42;7.70;99.90
35377;DHT22;21480;51.642;4.834;2022-11-20T17:24:10;7.70;99.90
35377;DHT22;21480;51.642;4.834;2022-11-20T17:26:39;7.60;99.90
35377;DHT22;21480;51.642;4.834;2022-11-20T17:29:09;7.60;99.90
35377;DHT22;21480;51.642;4.834;2022-11-20T17:31:35;7.60;99.90
35377;DHT22;21480;51.642;4.834;2022-11-20T17:34:03;7.50;99.90
35377;DHT22;21480;51.642;4.834;2022-11-20T17:36:30;7.50;99.90
35377;DHT22;21480;51.642;4.834;2022-11-20T17:38:56;7.50;99.90
35377;DHT22;21480;51.642;4.834;2022-11-20T17:41:23;7.40;99.90
35377;DHT22;21480;51.642;4.834;2022-11-20T17:43:53;7.40;99.90
35377;DHT22;21480;51.642;4.834;2022-11-20T17:46:21;7.30;99.90